Time;durP1;ratioP1;P1;durP2;ratioP2;P2;SDS_P1;SDS_P2;PMS_P1;PMS_P2;Temp;Humidity;BMP_temperature;BMP_pressure;BME280_temperature;BME280_humidity;BME280_pressure;Samples;Min_cycle;Max_cycle;Signal;HPM_P1;HPM_P2
2021/08/13 00:02:11;;;;;;;12.18;6.10;;;;;;;29.88;60.09;100863.22;4974073;28;70472;-36
2021/08/13 00:04:43;;;;;;;6.18;5.57;;;;;;;29.92;60.26;100864.44;4971651;28;66268;-36
2021/08/13 00:07:14;;;;;;;;;;;;;;;29.75;62.37;100866.78;4976283;28;69902;-36
2021/08/13 00:09:44;;;;;;;9.88;5.75;;;;;;;29.98;59.51;100866.31;4974804;28;65983;-36
2021/08/13 00:12:15;;;;;;;6.45;5.82;;;;;;;30.00;61.28;100858.78;4971722;28;70921;-37
2021/08/13 00:14:46;;;;;;;5.45;5.05;;;;;;;30.04;61.39;100860.03;4976660;28;66249;-37
2021/08/13 00:17:20;;;;;;;6.28;5.88;;;;;;;30.16;61.28;100869.09;4979213;28;44746;-36
2021/08/13 00:19:51;;;;;;;5.82;5.40;;;;;;;30.21;61.29;100872.00;4970943;28;66173;-37
2021/08/13 00:22:22;;;;;;;5.50;5.00;;;;;;;30.27;60.86;100868.47;4973654;28;71193;-37
2021/08/13 00:24:53;;;;;;;5.47;4.95;;;;;;;30.25;61.38;100862.41;4971102;28;65927;-37
2021/08/13 00:27:23;;;;;;;5.25;4.70;;;;;;;30.35;61.52;100880.09;4972486;28;69818;-36
2021/08/13 00:29:58;;;;;;;5.20;4.80;;;;;;;30.40;61.34;100874.84;4975938;28;65293;-37
2021/08/13 00:32:29;;;;;;;5.30;5.00;;;;;;;30.42;61.94;100873.59;4963090;28;70142;-37
2021/08/13 00:35:02;;;;;;;9.30;4.97;;;;;;;30.42;61.93;100870.03;4954218;28;66533;-37
2021/08/13 00:37:34;;;;;;;5.85;5.25;;;;;;;30.54;61.66;100886.44;4978717;28;69188;-36
2021/08/13 00:40:07;;;;;;;14.07;5.17;;;;;;;30.35;61.09;100847.63;4978396;28;66373;-37
2021/08/13 00:42:40;;;;;;;5.65;5.00;;;;;;;30.61;61.13;100888.03;4962721;28;70031;-38
2021/08/13 00:45:11;;;;;;;9.82;4.80;;;;;;;30.61;61.57;100888.03;4971900;28;66744;-38
2021/08/13 00:47:54;;;;;;;6.13;4.93;;;;;;;30.64;61.29;100892.19;4956336;28;69070;-37
2021/08/13 00:50:36;;;;;;;6.40;4.20;;;;;;;30.65;61.59;100894.69;4970738;28;65692;-36
2021/08/13 00:53:20;;;;;;;7.43;4.70;;;;;;;30.70;62.13;100897.56;4964664;28;69190;-37
2021/08/13 00:55:51;;;;;;;5.70;5.10;;;;;;;30.73;61.68;100905.25;4967273;28;65263;-36
2021/08/13 00:59:01;;;;;;;7.20;4.85;;;;;;;30.75;62.09;100905.00;4916060;28;70300;-36
2021/08/13 01:01:40;;;;;;;13.25;5.20;;;;;;;30.79;62.85;100900.00;4915034;28;65886;-36
2021/08/13 01:04:11;;;;;;;5.38;4.60;;;;;;;30.83;63.01;100906.66;4948546;28;70496;-37
2021/08/13 01:06:44;;;;;;;6.38;4.57;;;;;;;30.79;62.56;100894.59;4958433;28;66153;-37
2021/08/13 01:09:15;;;;;;;11.50;4.40;;;;;;;30.86;62.06;100906.22;4974808;28;69195;-36
2021/08/13 01:11:59;;;;;;;9.70;4.70;;;;;;;30.87;62.39;100897.03;4985052;28;66623;-37
2021/08/13 01:14:54;;;;;;;5.03;4.53;;;;;;;30.61;62.88;100860.94;4956708;28;70069;-36
2021/08/13 01:17:31;;;;;;;5.63;4.65;;;;;;;30.69;61.90;100873.41;4975579;28;66950;-36
2021/08/13 01:20:27;;;;;;;6.30;4.63;;;;;;;30.67;62.49;100867.38;4980728;28;69889;-37
2021/08/13 01:23:35;;;;;;;5.05;4.63;;;;;;;30.85;62.59;100904.56;4987440;28;66686;-36
2021/08/13 01:26:08;;;;;;;5.22;4.72;;;;;;;30.84;63.13;100892.06;4977692;28;70275;-35
2021/08/13 01:28:48;;;;;;;7.72;4.38;;;;;;;30.89;62.83;100911.19;4969753;28;66211;-36
2021/08/13 01:31:24;;;;;;;5.65;5.15;;;;;;;30.91;62.51;100912.66;4971617;28;70090;-37
2021/08/13 01:34:04;;;;;;;5.45;4.95;;;;;;;30.73;62.74;100880.88;4969175;28;65773;-36
2021/08/13 01:36:38;;;;;;;5.18;4.28;;;;;;;30.94;62.38;100919.50;4981962;28;70227;-36
2021/08/13 01:39:10;;;;;;;4.70;4.40;;;;;;;30.93;62.38;100925.97;4929619;28;66089;-36
2021/08/13 01:41:43;;;;;;;4.67;4.27;;;;;;;30.95;62.67;100921.16;4979897;28;70683;-36
2021/08/13 01:44:16;;;;;;;4.55;4.25;;;;;;;30.96;62.56;100928.25;4957196;28;66403;-36
2021/08/13 01:46:47;;;;;;;7.30;4.03;;;;;;;30.95;63.02;100929.28;4967117;28;69802;-36
2021/08/13 01:49:19;;;;;;;;;;;;;;;30.73;63.73;100928.81;4957837;28;65883;-37
2021/08/13 01:51:53;;;;;;;4.80;4.40;;;;;;;30.95;62.33;100923.84;4947652;28;69814;-36
2021/08/13 01:54:25;;;;;;;7.82;4.85;;;;;;;30.98;62.07;100923.44;4984176;28;66149;-35
2021/08/13 01:56:56;;;;;;;6.13;3.85;;;;;;;30.93;62.55;100905.13;4969582;28;70367;-35
2021/08/13 01:59:27;;;;;;;5.13;4.07;;;;;;;30.96;63.15;100914.69;4968410;28;65579;-38
2021/08/13 02:01:59;;;;;;;10.35;4.10;;;;;;;30.64;63.03;100846.97;4960322;28;70378;-37
2021/08/13 02:04:39;;;;;;;4.47;4.07;;;;;;;31.07;62.83;100922.13;4967980;28;66547;-36
2021/08/13 02:07:13;;;;;;;6.97;4.30;;;;;;;30.90;63.34;100880.38;4963187;28;71093;-36
2021/08/13 02:09:49;;;;;;;6.93;3.97;;;;;;;31.03;63.27;100918.16;4963911;28;66345;-35
2021/08/13 02:12:23;;;;;;;4.45;3.65;;;;;;;31.08;63.24;100928.34;4973903;28;69891;-35
2021/08/13 02:15:05;;;;;;;7.05;3.50;;;;;;;31.11;63.34;100923.31;4966546;28;65716;-36
2021/08/13 02:17:49;;;;;;;3.85;3.55;;;;;;;31.08;63.08;100923.75;4950714;28;70944;-36
2021/08/13 02:20:21;;;;;;;5.53;3.80;;;;;;;31.09;63.23;100930.88;4961708;28;66316;-35
2021/08/13 02:22:53;;;;;;;3.75;3.42;;;;;;;31.12;62.93;100932.28;4981926;28;70186;-36
2021/08/13 02:25:24;;;;;;;3.80;3.50;;;;;;;31.11;63.11;100926.03;4966963;28;65961;-35
2021/08/13 02:27:57;;;;;;;10.63;4.07;;;;;;;31.16;63.10;100928.91;4981044;28;69973;-35
2021/08/13 02:30:31;;;;;;;4.03;3.47;;;;;;;31.14;62.78;100930.19;4961444;28;65576;-36
2021/08/13 02:33:02;;;;;;;4.57;3.70;;;;;;;31.12;62.27;100938.53;4965295;28;70221;-36
2021/08/13 02:35:34;;;;;;;;;;;;;;;30.94;63.63;100935.75;4960764;28;66281;-35
2021/08/13 02:38:20;;;;;;;4.00;3.70;;;;;;;31.12;62.61;100943.97;4983325;28;70133;-37
2021/08/13 02:41:04;;;;;;;4.75;3.40;;;;;;;31.15;62.67;100943.53;4966294;28;66422;-39
2021/08/13 02:43:57;;;;;;;3.92;3.28;;;;;;;31.12;62.68;100933.13;4954411;28;68768;-36
2021/08/13 02:46:38;;;;;;;4.80;3.30;;;;;;;31.21;62.23;100949.94;4951473;28;66031;-36
2021/08/13 02:49:13;;;;;;;3.50;3.20;;;;;;;31.13;62.36;100926.66;4962544;28;70602;-34
2021/08/13 02:51:45;;;;;;;5.85;3.33;;;;;;;31.22;62.17;100948.88;4971390;28;66198;-36
2021/08/13 02:54:22;;;;;;;3.40;3.13;;;;;;;30.84;62.70;100881.22;4969327;28;70187;-36
2021/08/13 02:56:56;;;;;;;3.90;3.50;;;;;;;30.78;62.52;100873.97;4972639;28;65876;-36
2021/08/13 02:59:30;;;;;;;4.20;3.60;;;;;;;31.30;62.87;100945.06;4972783;28;69409;-36
2021/08/13 03:02:03;;;;;;;4.32;3.45;;;;;;;31.32;63.11;100941.09;4971581;28;65405;-37
2021/08/13 03:04:40;;;;;;;11.00;3.17;;;;;;;31.34;63.45;100946.25;4952805;28;69684;-34
2021/08/13 03:07:13;;;;;;;4.32;3.70;;;;;;;31.37;63.55;100935.84;4969307;28;65324;-36
2021/08/13 03:09:44;;;;;;;4.55;4.22;;;;;;;31.39;63.97;100932.91;4953471;28;69841;-34
2021/08/13 03:12:16;;;;;;;3.78;3.45;;;;;;;31.38;63.82;100923.13;4969551;28;65432;-34
2021/08/13 03:14:49;;;;;;;5.05;4.53;;;;;;;31.35;64.36;100916.25;4970465;28;70023;-36
2021/08/13 03:17:22;;;;;;;6.47;4.13;;;;;;;31.48;63.55;100919.91;4955399;28;66323;-37
2021/08/13 03:19:54;;;;;;;4.68;4.28;;;;;;;31.40;64.32;100912.91;4971427;28;70174;-35
2021/08/13 03:22:25;;;;;;;4.75;4.30;;;;;;;31.55;64.10;100926.09;4959341;28;66815;-36
2021/08/13 03:25:00;;;;;;;4.35;3.95;;;;;;;31.59;63.91;100933.56;4975148;28;70779;-35
2021/08/13 03:27:31;;;;;;;4.88;4.22;;;;;;;31.56;63.79;100917.72;4976455;28;65963;-36
2021/08/13 03:30:05;;;;;;;9.38;3.90;;;;;;;31.63;64.28;100922.28;4971706;28;70713;-36
2021/08/13 03:32:40;;;;;;;4.90;4.45;;;;;;;31.73;63.12;100922.56;4979915;28;66840;-37
2021/08/13 03:35:16;;;;;;;4.00;3.70;;;;;;;31.75;61.54;100915.03;4970129;28;69896;-35
2021/08/13 03:37:47;;;;;;;9.10;3.90;;;;;;;31.73;61.29;100900.88;4949884;28;66306;-35
2021/08/13 03:40:17;;;;;;;7.05;3.85;;;;;;;31.85;62.08;100915.34;4966910;28;70145;-36
2021/08/13 03:42:52;;;;;;;7.60;3.67;;;;;;;31.87;62.10;100913.22;4982581;28;66248;-35
2021/08/13 03:45:24;;;;;;;6.53;3.20;;;;;;;31.88;62.05;100914.91;4971902;28;70757;-36
2021/08/13 03:47:54;;;;;;;6.57;3.78;;;;;;;31.89;62.10;100904.88;4989168;28;65547;-35
2021/08/13 03:50:25;;;;;;;4.40;4.00;;;;;;;31.91;62.10;100909.03;4973541;28;70384;-36
2021/08/13 03:52:57;;;;;;;3.83;3.47;;;;;;;31.86;62.16;100905.31;4982803;28;66249;-36
2021/08/13 03:55:31;;;;;;;6.55;3.67;;;;;;;31.92;62.67;100905.25;4966101;28;69000;-36
2021/08/13 03:58:10;;;;;;;4.13;3.70;;;;;;;31.96;62.41;100909.19;4971051;28;65045;-36
2021/08/13 04:00:41;;;;;;;4.05;3.72;;;;;;;31.97;61.90;100907.31;4973201;28;70379;-36
2021/08/13 04:03:15;;;;;;;8.15;3.55;;;;;;;32.01;62.00;100909.34;4966617;28;66275;-35
2021/08/13 04:05:46;;;;;;;4.00;3.70;;;;;;;32.03;62.01;100906.38;4968903;28;69352;-35
2021/08/13 04:08:19;;;;;;;4.03;3.55;;;;;;;32.01;61.47;100893.06;4954275;28;65952;-35
2021/08/13 04:10:50;;;;;;;11.98;3.97;;;;;;;32.08;60.98;100903.00;4959696;28;68796;-36
2021/08/13 04:13:21;;;;;;;3.88;3.55;;;;;;;32.10;61.51;100896.28;4971125;28;67294;-37
2021/08/13 04:15:59;;;;;;;4.07;3.78;;;;;;;32.13;61.56;100895.00;4952661;28;70424;-35
2021/08/13 04:18:31;;;;;;;6.90;3.72;;;;;;;32.11;61.11;100880.84;4968721;28;66660;-35
2021/08/13 04:21:03;;;;;;;4.20;3.83;;;;;;;32.15;61.24;100876.59;4963629;28;70464;-35
2021/08/13 04:23:33;;;;;;;5.03;3.63;;;;;;;32.19;61.23;100877.81;4958146;28;66154;-35
2021/08/13 04:26:04;;;;;;;6.55;3.65;;;;;;;32.19;61.82;100878.63;4976281;28;69987;-35
2021/08/13 04:28:35;;;;;;;4.27;3.97;;;;;;;32.21;61.76;100864.84;4956278;28;66338;-34
2021/08/13 04:31:07;;;;;;;4.47;3.92;;;;;;;32.22;61.49;100867.31;4969966;28;69248;-35
2021/08/13 04:33:39;;;;;;;8.02;3.80;;;;;;;32.18;62.02;100849.84;4967602;28;66279;-38
2021/08/13 04:36:15;;;;;;;3.95;3.60;;;;;;;32.21;61.94;100859.41;4962060;28;70229;-42
2021/08/13 04:38:45;;;;;;;4.97;3.50;;;;;;;32.25;61.71;100855.16;4982905;28;65371;-37
2021/08/13 04:41:16;;;;;;;4.07;3.28;;;;;;;32.24;61.65;100853.53;4973279;28;70321;-40
2021/08/13 04:43:58;;;;;;;4.00;3.60;;;;;;;32.17;61.20;100844.63;4992264;28;66224;-35
2021/08/13 04:46:30;;;;;;;4.53;3.57;;;;;;;32.32;60.79;100850.47;4970048;28;70335;-37
2021/08/13 04:49:01;;;;;;;3.88;3.30;;;;;;;32.31;60.67;100843.38;4964623;28;66076;-37
2021/08/13 04:51:32;;;;;;;3.65;3.35;;;;;;;32.35;59.74;100838.34;4971299;28;70527;-35
2021/08/13 04:54:04;;;;;;;4.65;3.38;;;;;;;32.40;59.28;100820.28;4983022;28;65504;-35
2021/08/13 04:56:34;;;;;;;3.60;3.13;;;;;;;32.36;59.31;100800.09;4973922;28;69282;-35
2021/08/13 04:59:05;;;;;;;6.53;3.22;;;;;;;32.47;59.06;100807.47;4964387;28;66111;-37
2021/08/13 05:01:49;;;;;;;3.30;3.08;;;;;;;32.53;58.79;100804.88;4957087;28;70772;-35
2021/08/13 05:04:22;;;;;;;5.30;3.15;;;;;;;32.53;58.92;100791.31;4952317;28;66701;-36
2021/08/13 05:06:53;;;;;;;3.53;3.13;;;;;;;32.58;58.52;100794.16;4956065;28;69204;-35
2021/08/13 05:09:24;;;;;;;5.38;2.58;;;;;;;32.58;58.88;100794.16;4955628;28;66927;-35
2021/08/13 05:11:55;;;;;;;6.63;2.72;;;;;;;32.57;59.49;100792.47;4971688;28;69857;-35
2021/08/13 05:14:38;;;;;;;6.30;3.05;;;;;;;32.52;58.72;100800.53;4968116;28;65939;-35
2021/08/13 05:17:09;;;;;;;5.97;2.65;;;;;;;32.42;56.71;100793.72;4988175;28;70369;-35
2021/08/13 05:19:40;;;;;;;4.73;2.80;;;;;;;32.31;55.40;100799.13;4971569;28;66266;-35
2021/08/13 05:22:11;;;;;;;3.35;3.00;;;;;;;32.08;54.54;100778.19;4987448;28;70087;-38
2021/08/13 05:24:42;;;;;;;2.80;2.50;;;;;;;32.07;53.95;100792.78;4954171;28;65385;-38
2021/08/13 05:27:13;;;;;;;3.45;2.35;;;;;;;31.94;52.86;100783.78;4937698;28;70309;-36
2021/08/13 05:29:44;;;;;;;2.50;2.30;;;;;;;31.83;52.60;100777.22;4971515;28;65737;-36
2021/08/13 05:32:15;;;;;;;8.65;2.40;;;;;;;31.74;51.46;100772.38;4970678;28;69361;-36
2021/08/13 05:34:45;;;;;;;6.32;2.15;;;;;;;31.60;51.21;100756.25;4969354;28;65893;-36
2021/08/13 05:37:16;;;;;;;2.70;2.30;;;;;;;31.37;51.11;100723.59;4969383;28;70494;-35
2021/08/13 05:39:48;;;;;;;2.28;2.03;;;;;;;31.51;50.66;100752.22;4950502;28;66951;-34
2021/08/13 05:42:19;;;;;;;8.48;2.10;;;;;;;31.40;50.66;100739.44;4968715;28;70074;-35
2021/08/13 05:44:50;;;;;;;9.00;2.20;;;;;;;31.29;50.61;100730.13;4967321;28;66641;-36
2021/08/13 05:47:21;;;;;;;9.02;2.42;;;;;;;31.26;50.53;100722.47;4972043;28;70755;-37
2021/08/13 05:49:52;;;;;;;12.50;1.98;;;;;;;31.29;50.31;100732.84;4980269;28;66806;-37
2021/08/13 05:52:23;;;;;;;6.97;1.60;;;;;;;31.22;50.14;100715.81;4966226;28;70434;-39
2021/08/13 05:54:54;;;;;;;14.43;2.33;;;;;;;31.25;49.03;100719.97;4950172;28;66493;-38
2021/08/13 05:57:30;;;;;;;6.43;1.88;;;;;;;31.20;48.01;100712.50;4965908;28;70308;-37
2021/08/13 06:00:02;;;;;;;13.40;2.38;;;;;;;31.20;47.88;100703.56;4964832;28;65998;-37
2021/08/13 06:02:58;;;;;;;9.73;1.80;;;;;;;31.13;47.12;100700.94;4960502;28;70112;-35
2021/08/13 06:05:33;;;;;;;11.48;1.88;;;;;;;31.12;47.19;100691.97;4965217;28;66728;-38
2021/08/13 06:08:05;;;;;;;1.92;1.70;;;;;;;31.12;46.19;100688.41;4965475;28;70462;-35
2021/08/13 06:10:36;;;;;;;7.15;2.00;;;;;;;31.10;46.26;100680.53;4966940;28;65495;-39
2021/08/13 06:13:08;;;;;;;2.85;1.55;;;;;;;31.17;46.77;100685.88;4951686;28;70163;-36
2021/08/13 06:15:39;;;;;;;1.70;1.60;;;;;;;31.15;45.95;100674.44;4970691;28;65322;-36
2021/08/13 06:18:10;;;;;;;2.55;1.77;;;;;;;31.05;45.42;100655.19;4951794;28;70190;-35
2021/08/13 06:20:41;;;;;;;4.18;1.95;;;;;;;31.11;45.31;100665.09;4968644;28;66342;-35
2021/08/13 06:23:16;;;;;;;1.77;1.45;;;;;;;31.04;45.49;100635.41;4961712;28;69182;-38
2021/08/13 06:25:47;;;;;;;1.70;1.30;;;;;;;31.15;44.31;100650.06;4971704;28;65786;-35
2021/08/13 06:28:18;;;;;;;2.42;1.77;;;;;;;31.12;44.39;100645.94;4972134;28;69054;-35
2021/08/13 06:30:49;;;;;;;;;;;;;;;30.84;43.68;100648.31;4972577;28;65806;-36
2021/08/13 06:33:20;;;;;;;2.55;1.27;;;;;;;31.07;43.97;100632.22;4966492;28;70319;-35
2021/08/13 06:35:51;;;;;;;2.40;1.50;;;;;;;31.04;44.42;100621.03;4968823;28;67398;-34
2021/08/13 06:38:22;;;;;;;1.67;1.35;;;;;;;31.04;43.62;100611.00;4964080;28;70324;-34
2021/08/13 06:40:54;;;;;;;2.13;1.30;;;;;;;30.89;43.06;100595.13;4983645;28;66113;-36
2021/08/13 06:43:28;;;;;;;8.18;1.73;;;;;;;31.04;43.29;100613.72;4973843;28;70609;-36
2021/08/13 06:46:00;;;;;;;1.42;1.33;;;;;;;31.02;42.72;100609.59;4970386;28;66142;-35
2021/08/13 06:48:34;;;;;;;2.55;1.77;;;;;;;31.06;42.54;100603.47;4955994;28;70342;-35
2021/08/13 06:51:08;;;;;;;3.80;1.73;;;;;;;31.07;42.76;100605.13;4956269;28;66260;-35
2021/08/13 06:53:40;;;;;;;2.40;2.20;;;;;;;31.09;42.45;100594.06;4953031;28;69366;-36
2021/08/13 06:56:11;;;;;;;1.92;1.70;;;;;;;31.13;42.25;100590.66;4952977;28;65382;-35
2021/08/13 06:58:41;;;;;;;6.05;2.28;;;;;;;31.19;42.48;100590.81;4967553;28;69413;-36
2021/08/13 07:01:13;;;;;;;6.30;2.37;;;;;;;31.21;42.94;100605.78;4967197;28;66808;-35
2021/08/13 07:03:44;;;;;;;5.60;2.20;;;;;;;31.25;42.36;100588.00;4963793;28;69228;-35
2021/08/13 07:06:15;;;;;;;5.95;2.03;;;;;;;31.23;42.45;100575.72;4971795;28;66084;-36
2021/08/13 07:08:46;;;;;;;5.32;2.15;;;;;;;31.31;41.66;100572.69;4954414;28;70306;-36
2021/08/13 07:11:17;;;;;;;2.15;1.88;;;;;;;31.37;41.58;100571.81;4970521;28;65834;-36
2021/08/13 07:13:47;;;;;;;9.00;2.05;;;;;;;31.40;41.39;100565.94;4972049;28;69056;-36
2021/08/13 07:16:18;;;;;;;3.15;2.10;;;;;;;31.41;41.68;100572.19;4956969;28;66674;-36
2021/08/13 07:18:49;;;;;;;6.07;2.40;;;;;;;31.41;41.68;100562.16;4966618;28;70621;-36
2021/08/13 07:21:20;;;;;;;5.32;2.20;;;;;;;31.39;42.25;100548.00;4972894;28;66217;-36
2021/08/13 07:23:58;;;;;;;3.15;2.70;;;;;;;31.43;42.11;100551.94;4952902;28;70371;-37
2021/08/13 07:26:29;;;;;;;6.38;1.95;;;;;;;31.56;42.70;100553.59;4978554;28;65858;-37
2021/08/13 07:29:00;;;;;;;2.33;2.22;;;;;;;31.59;42.21;100548.56;4957073;28;71268;-36
2021/08/13 07:31:31;;;;;;;2.15;1.95;;;;;;;31.53;41.68;100532.38;4965409;28;65518;-37
2021/08/13 07:34:05;;;;;;;2.40;2.20;;;;;;;31.64;41.78;100547.00;4962460;28;70543;-38
2021/08/13 07:36:40;;;;;;;2.70;2.50;;;;;;;31.65;41.15;100545.94;4967275;28;66165;-37
2021/08/13 07:39:14;;;;;;;2.67;2.47;;;;;;;31.64;41.88;100544.31;4951677;28;69165;-37
2021/08/13 07:41:44;;;;;;;2.00;1.90;;;;;;;31.68;40.86;100551.75;4949089;28;65491;-37
2021/08/13 07:44:15;;;;;;;3.17;2.10;;;;;;;31.70;40.70;100537.94;4968863;28;69163;-37
2021/08/13 07:47:03;;;;;;;2.72;2.53;;;;;;;31.70;41.03;100537.94;4969568;28;65982;-36
2021/08/13 07:49:34;;;;;;;3.33;2.33;;;;;;;31.65;40.83;100524.25;4968757;28;70061;-36
2021/08/13 07:52:05;;;;;;;5.03;2.50;;;;;;;31.72;40.70;100535.81;4967859;28;66845;-37
2021/08/13 07:54:37;;;;;;;2.88;2.67;;;;;;;31.74;41.33;100536.44;4966956;28;70538;-36
2021/08/13 07:57:09;;;;;;;2.70;2.50;;;;;;;31.74;41.33;100523.69;4979967;28;65571;-37
2021/08/13 07:59:40;;;;;;;2.43;2.30;;;;;;;31.45;41.19;100490.16;4952785;28;70023;-38
2021/08/13 08:02:12;;;;;;;2.60;2.40;;;;;;;31.76;40.88;100550.56;4970658;28;66790;-36
2021/08/13 08:04:44;;;;;;;8.23;2.47;;;;;;;31.76;41.22;100564.13;4970317;28;70222;-36
2021/08/13 08:07:14;;;;;;;3.40;3.10;;;;;;;31.74;41.18;100560.84;4967934;28;66270;-36
2021/08/13 08:09:45;;;;;;;3.80;3.00;;;;;;;31.73;40.48;100564.59;4966123;28;69646;-36
2021/08/13 08:12:16;;;;;;;2.78;2.58;;;;;;;31.73;41.48;100570.84;4967617;28;65506;-37
2021/08/13 08:14:47;;;;;;;6.28;2.80;;;;;;;31.71;41.40;100583.00;4968860;28;69172;-36
2021/08/13 08:17:17;;;;;;;24.70;3.10;;;;;;;31.66;40.99;100585.56;4970196;28;65473;-36
2021/08/13 08:19:48;;;;;;;6.88;2.92;;;;;;;31.67;41.03;100598.06;4978307;28;70028;-37
2021/08/13 08:22:21;;;;;;;20.13;2.97;;;;;;;31.65;41.31;100594.75;4979984;28;66172;-36
2021/08/13 08:24:51;;;;;;;15.68;2.42;;;;;;;31.64;41.46;100602.06;4976878;28;70095;-36
2021/08/13 08:27:21;;;;;;;6.85;3.08;;;;;;;31.55;41.32;100581.78;4972501;28;66105;-36
2021/08/13 08:29:55;;;;;;;11.00;3.08;;;;;;;31.55;42.79;100569.03;4974072;28;70066;-36
2021/08/13 08:32:26;;;;;;;3.50;3.10;;;;;;;31.42;45.15;100531.28;4972727;28;66526;-38
2021/08/13 08:34:57;;;;;;;4.88;3.05;;;;;;;31.61;45.03;100561.84;4978930;28;70094;-36
2021/08/13 08:37:27;;;;;;;3.28;2.97;;;;;;;31.61;44.63;100573.53;4971769;28;66853;-36
2021/08/13 08:39:58;;;;;;;4.72;2.92;;;;;;;31.56;43.67;100565.25;4975031;28;69623;-36
2021/08/13 08:42:28;;;;;;;3.35;3.15;;;;;;;31.53;44.51;100554.06;4977565;28;66466;-36
2021/08/13 08:44:59;;;;;;;5.70;4.55;;;;;;;31.60;47.77;100555.63;4986850;28;69707;-36
2021/08/13 08:47:30;;;;;;;5.43;5.03;;;;;;;31.71;51.81;100542.31;4973028;28;66009;-36
2021/08/13 08:50:00;;;;;;;5.35;4.95;;;;;;;31.94;53.28;100564.06;4983191;28;70217;-35
2021/08/13 08:52:31;;;;;;;7.40;4.93;;;;;;;32.10;55.48;100559.00;4973941;28;65503;-35
2021/08/13 08:55:01;;;;;;;8.70;5.22;;;;;;;32.28;54.78;100545.28;4971082;28;69508;-35
2021/08/13 08:57:34;;;;;;;8.65;4.82;;;;;;;32.44;55.02;100541.84;4971935;28;65324;-35
2021/08/13 09:00:05;;;;;;;6.07;4.57;;;;;;;32.51;54.40;100528.16;4967402;28;70348;-35
2021/08/13 09:02:36;;;;;;;6.55;5.28;;;;;;;32.56;55.02;100524.72;4969156;28;66020;-35
2021/08/13 09:05:06;;;;;;;5.45;5.00;;;;;;;32.75;54.74;100545.22;4970557;28;69498;-36
2021/08/13 09:07:37;;;;;;;8.32;5.20;;;;;;;32.56;54.37;100511.16;4969339;28;65933;-34
2021/08/13 09:10:13;;;;;;;6.75;5.10;;;;;;;32.97;54.12;100560.84;4970296;28;69423;-43
2021/08/13 09:12:43;;;;;;;6.78;5.38;;;;;;;33.03;54.34;100563.44;4975354;28;66115;-35
2021/08/13 09:15:26;;;;;;;5.73;5.33;;;;;;;33.06;54.77;100573.00;4974053;28;69931;-35
2021/08/13 09:18:25;;;;;;;5.95;5.57;;;;;;;33.10;54.77;100574.19;4972851;28;66252;-35
2021/08/13 09:20:58;;;;;;;6.07;5.57;;;;;;;33.25;54.33;100579.91;4970745;28;69441;-35
2021/08/13 09:23:35;;;;;;;5.80;5.30;;;;;;;33.25;54.00;100582.63;4980006;28;65976;-35
2021/08/13 09:26:14;;;;;;;5.82;5.28;;;;;;;33.32;53.73;100585.16;4971190;28;69943;-40
2021/08/13 09:29:19;;;;;;;5.93;5.53;;;;;;;33.05;53.55;100526.00;4972812;28;66566;-35
2021/08/13 09:32:08;;;;;;;5.93;5.00;;;;;;;33.39;53.41;100583.13;4975967;28;70127;-43
2021/08/13 09:34:48;;;;;;;5.68;5.38;;;;;;;33.45;53.13;100592.22;4969422;28;66460;-34
2021/08/13 09:37:19;;;;;;;5.18;4.78;;;;;;;33.43;52.83;100595.16;4970590;28;70757;-34
2021/08/13 09:39:58;;;;;;;6.80;5.20;;;;;;;33.46;52.50;100600.13;4967325;28;65849;-35
2021/08/13 09:42:39;;;;;;;5.25;4.95;;;;;;;33.49;52.47;100604.22;4963690;28;69494;-34
2021/08/13 09:45:11;;;;;;;8.80;4.97;;;;;;;33.53;52.44;100605.44;4970966;28;66320;-34
2021/08/13 09:47:44;;;;;;;5.68;5.00;;;;;;;33.54;52.38;100617.94;4967382;28;70260;-34
2021/08/13 09:50:32;;;;;;;5.47;4.97;;;;;;;33.25;52.03;100577.19;4968575;28;66599;-35
2021/08/13 09:53:07;;;;;;;6.45;5.85;;;;;;;33.52;51.94;100642.69;4969547;28;69136;-35
2021/08/13 09:55:41;;;;;;;6.47;5.28;;;;;;;33.53;52.44;100662.53;4968709;28;66870;-41
2021/08/13 09:58:11;;;;;;;;;;;;;;;33.21;53.54;100652.13;4970080;28;70396;-35
2021/08/13 10:00:45;;;;;;;8.23;5.65;;;;;;;33.11;52.83;100600.28;4966309;28;67092;-38
2021/08/13 10:03:16;;;;;;;6.85;6.20;;;;;;;33.41;52.93;100656.31;4970944;28;70066;-36
2021/08/13 10:06:04;;;;;;;6.73;6.23;;;;;;;33.13;53.37;100628.88;4970270;28;65255;-36
2021/08/13 10:08:43;;;;;;;10.52;7.13;;;;;;;33.52;53.85;100686.19;4970766;28;70925;-35
2021/08/13 10:11:15;;;;;;;12.30;8.27;;;;;;;33.51;54.45;100689.13;4969247;28;66545;-36
2021/08/13 10:13:53;;;;;;;10.40;8.77;;;;;;;33.53;54.39;100684.31;4966933;28;70297;-35
2021/08/13 10:16:28;;;;;;;10.07;9.27;;;;;;;33.53;54.41;100687.03;4968538;28;65219;-36
2021/08/13 10:19:12;;;;;;;12.02;10.00;;;;;;;33.55;54.68;100683.00;4972193;28;70697;-38
2021/08/13 10:21:43;;;;;;;18.95;10.82;;;;;;;33.55;55.25;100668.56;4974110;28;65895;-44
2021/08/13 10:24:14;;;;;;;16.50;10.43;;;;;;;33.54;55.61;100658.75;4950010;28;70426;-36
2021/08/13 10:26:45;;;;;;;18.17;11.25;;;;;;;33.52;56.45;100647.28;4945388;28;66170;-36
2021/08/13 10:29:17;;;;;;;23.20;11.77;;;;;;;33.46;55.85;100640.91;4987350;28;69241;-36
2021/08/13 10:31:48;;;;;;;16.52;11.13;;;;;;;33.54;56.04;100650.59;4950320;28;64973;-35
2021/08/13 10:34:18;;;;;;;19.17;11.43;;;;;;;33.56;55.82;100643.84;4979261;28;69945;-36
2021/08/13 10:36:51;;;;;;;28.00;11.82;;;;;;;33.56;56.27;100648.47;4976097;28;65301;-36
2021/08/13 10:39:26;;;;;;;25.80;9.88;;;;;;;33.57;56.40;100645.50;4968769;28;70098;-36
2021/08/13 10:42:03;;;;;;;31.73;11.40;;;;;;;33.56;56.94;100648.47;4989847;28;66556;-37
2021/08/13 10:44:52;;;;;;;17.85;11.63;;;;;;;33.52;57.46;100636.41;4935878;28;70371;-37
2021/08/13 10:47:30;;;;;;;18.88;11.43;;;;;;;33.53;57.32;100643.50;4971228;28;66309;-36
2021/08/13 10:50:05;;;;;;;19.48;10.68;;;;;;;33.41;56.89;100619.06;4969694;28;70300;-36
2021/08/13 10:52:38;;;;;;;14.10;10.98;;;;;;;33.52;57.06;100630.97;4969535;28;66586;-36
2021/08/13 10:55:41;;;;;;;11.65;10.45;;;;;;;33.42;57.23;100639.75;4981874;28;70146;-36
2021/08/13 10:58:12;;;;;;;15.05;10.35;;;;;;;33.41;56.88;100648.97;4982284;28;64610;-36
2021/08/13 11:01:06;;;;;;;13.27;10.77;;;;;;;33.38;57.23;100663.88;4952746;28;70763;-35
2021/08/13 11:03:44;;;;;;;10.93;9.88;;;;;;;33.47;56.96;100661.59;4983115;28;65855;-45
2021/08/13 11:06:15;;;;;;;13.05;10.93;;;;;;;33.42;57.38;100657.97;4962605;28;69985;-35
2021/08/13 11:08:46;;;;;;;11.77;10.75;;;;;;;33.38;57.29;100669.31;4969399;28;67289;-37
2021/08/13 11:11:17;;;;;;;13.85;11.10;;;;;;;33.22;58.50;100672.81;4972082;28;69998;-37
2021/08/13 11:13:48;;;;;;;11.65;10.50;;;;;;;33.01;58.41;100662.56;4987193;28;66552;-35
2021/08/13 11:16:32;;;;;;;11.18;10.15;;;;;;;32.97;59.17;100683.13;4957373;28;69571;-36
2021/08/13 11:19:11;;;;;;;18.20;10.55;;;;;;;32.91;59.54;100679.47;4969726;28;65088;-39
2021/08/13 11:21:47;;;;;;;12.45;10.27;;;;;;;32.72;60.17;100676.06;4976568;28;69947;-36
2021/08/13 11:24:21;;;;;;;11.52;10.20;;;;;;;32.69;60.61;100687.41;4953369;28;65953;-36
2021/08/13 11:26:54;;;;;;;11.68;9.77;;;;;;;32.73;60.73;100699.44;4968700;28;70332;-35
2021/08/13 11:29:33;;;;;;;14.23;10.15;;;;;;;32.72;60.53;100705.94;4984538;28;66472;-35
2021/08/13 11:32:14;;;;;;;14.43;9.43;;;;;;;32.66;60.99;100709.63;4962598;28;69395;-35
2021/08/13 11:34:52;;;;;;;11.18;9.73;;;;;;;32.63;60.91;100715.53;4959261;28;67301;-36
2021/08/13 11:37:37;;;;;;;10.10;9.13;;;;;;;32.61;61.78;100718.47;4957018;28;70610;-35
2021/08/13 11:40:30;;;;;;;11.98;9.60;;;;;;;32.48;61.56;100718.69;4985058;28;66523;-37
2021/08/13 11:43:02;;;;;;;12.63;9.90;;;;;;;32.58;60.90;100728.97;4969326;28;69561;-37
2021/08/13 11:45:43;;;;;;;24.80;7.90;;;;;;;32.21;60.65;100674.88;4968074;28;66627;-35
2021/08/13 11:48:21;;;;;;;10.07;7.70;;;;;;;32.59;60.53;100736.03;4968822;28;69551;-36
2021/08/13 11:50:53;;;;;;;15.98;7.18;;;;;;;32.63;60.38;100750.81;4973121;28;67291;-36
2021/08/13 11:53:34;;;;;;;;;;;;;;;32.39;61.71;100764.31;4967293;28;70183;-34
2021/08/13 11:56:06;;;;;;;8.38;7.03;;;;;;;32.61;61.05;100771.94;4992084;28;66337;-37
2021/08/13 11:58:38;;;;;;;9.53;6.70;;;;;;;32.67;61.63;100787.31;4972107;28;70780;-36